sensor_id;sensor_type;location;lat;lon;timestamp;P1;durP1;ratioP1;P2;durP2;ratioP2
2039;SDS011;1025;42.686;23.350;2023-11-21T00:02:13;19.43;;;12.80;;
2039;SDS011;1025;42.686;23.350;2023-11-21T00:04:39;15.23;;;11.67;;
2039;SDS011;1025;42.686;23.350;2023-11-21T00:07:07;14.87;;;12.87;;
2039;SDS011;1025;42.686;23.350;2023-11-21T00:09:34;17.03;;;12.80;;
2039;SDS011;1025;42.686;23.350;2023-11-21T00:12:01;19.43;;;11.90;;
2039;SDS011;1025;42.686;23.350;2023-11-21T00:14:28;16.80;;;12.00;;
2039;SDS011;1025;42.686;23.350;2023-11-21T00:16:55;16.37;;;12.50;;
2039;SDS011;1025;42.686;23.350;2023-11-21T00:19:21;17.30;;;13.87;;
2039;SDS011;1025;42.686;23.350;2023-11-21T00:21:48;14.00;;;11.07;;
2039;SDS011;1025;42.686;23.350;2023-11-21T00:24:16;12.70;;;11.30;;
2039;SDS011;1025;42.686;23.350;2023-11-21T00:26:42;20.37;;;12.93;;
2039;SDS011;1025;42.686;23.350;2023-11-21T00:29:09;20.33;;;11.43;;
2039;SDS011;1025;42.686;23.350;2023-11-21T00:31:36;13.60;;;12.10;;
2039;SDS011;1025;42.686;23.350;2023-11-21T00:34:03;16.67;;;11.50;;
2039;SDS011;1025;42.686;23.350;2023-11-21T00:36:30;14.43;;;11.27;;
2039;SDS011;1025;42.686;23.350;2023-11-21T00:38:57;16.43;;;12.17;;
2039;SDS011;1025;42.686;23.350;2023-11-21T00:41:25;15.10;;;12.00;;
2039;SDS011;1025;42.686;23.350;2023-11-21T00:43:52;14.13;;;11.27;;
2039;SDS011;1025;42.686;23.350;2023-11-21T00:46:19;13.47;;;12.17;;
2039;SDS011;1025;42.686;23.350;2023-11-21T00:48:45;18.27;;;12.10;;
2039;SDS011;1025;42.686;23.350;2023-11-21T00:51:12;20.03;;;13.70;;
2039;SDS011;1025;42.686;23.350;2023-11-21T00:53:38;27.77;;;18.53;;
2039;SDS011;1025;42.686;23.350;2023-11-21T00:56:05;20.37;;;16.17;;
2039;SDS011;1025;42.686;23.350;2023-11-21T00:58:35;29.63;;;20.53;;
2039;SDS011;1025;42.686;23.350;2023-11-21T01:01:01;30.00;;;22.63;;
2039;SDS011;1025;42.686;23.350;2023-11-21T01:03:28;31.00;;;19.00;;
2039;SDS011;1025;42.686;23.350;2023-11-21T01:05:55;27.90;;;19.93;;
2039;SDS011;1025;42.686;23.350;2023-11-21T01:08:22;26.47;;;20.50;;
2039;SDS011;1025;42.686;23.350;2023-11-21T01:10:49;29.80;;;19.37;;
2039;SDS011;1025;42.686;23.350;2023-11-21T01:13:15;30.53;;;20.47;;
2039;SDS011;1025;42.686;23.350;2023-11-21T01:15:43;23.80;;;19.10;;
2039;SDS011;1025;42.686;23.350;2023-11-21T01:18:10;32.23;;;20.83;;
2039;SDS011;1025;42.686;23.350;2023-11-21T01:20:36;27.87;;;22.30;;
2039;SDS011;1025;42.686;23.350;2023-11-21T01:23:03;27.07;;;20.67;;
2039;SDS011;1025;42.686;23.350;2023-11-21T01:25:29;28.53;;;20.67;;
2039;SDS011;1025;42.686;23.350;2023-11-21T01:27:56;31.03;;;22.47;;
2039;SDS011;1025;42.686;23.350;2023-11-21T01:30:23;30.93;;;22.97;;
2039;SDS011;1025;42.686;23.350;2023-11-21T01:32:52;29.00;;;23.03;;
2039;SDS011;1025;42.686;23.350;2023-11-21T01:35:18;31.90;;;23.67;;
2039;SDS011;1025;42.686;23.350;2023-11-21T01:37:45;30.07;;;24.17;;
2039;SDS011;1025;42.686;23.350;2023-11-21T01:40:13;37.57;;;22.10;;
2039;SDS011;1025;42.686;23.350;2023-11-21T01:42:40;29.17;;;23.90;;
2039;SDS011;1025;42.686;23.350;2023-11-21T01:45:06;29.10;;;21.43;;
2039;SDS011;1025;42.686;23.350;2023-11-21T01:47:34;28.67;;;21.30;;
2039;SDS011;1025;42.686;23.350;2023-11-21T01:50:03;25.00;;;19.13;;
2039;SDS011;1025;42.686;23.350;2023-11-21T01:52:30;26.60;;;20.53;;
2039;SDS011;1025;42.686;23.350;2023-11-21T01:54:57;28.23;;;20.57;;
2039;SDS011;1025;42.686;23.350;2023-11-21T01:57:24;30.27;;;22.57;;
2039;SDS011;1025;42.686;23.350;2023-11-21T01:59:51;29.70;;;21.13;;
2039;SDS011;1025;42.686;23.350;2023-11-21T02:02:19;29.03;;;22.00;;
2039;SDS011;1025;42.686;23.350;2023-11-21T02:04:45;29.10;;;23.33;;
2039;SDS011;1025;42.686;23.350;2023-11-21T02:07:13;27.47;;;20.93;;
2039;SDS011;1025;42.686;23.350;2023-11-21T02:09:40;27.17;;;21.50;;
2039;SDS011;1025;42.686;23.350;2023-11-21T02:12:07;24.47;;;21.37;;
2039;SDS011;1025;42.686;23.350;2023-11-21T02:14:35;27.40;;;23.33;;
2039;SDS011;1025;42.686;23.350;2023-11-21T02:17:02;30.77;;;23.60;;
2039;SDS011;1025;42.686;23.350;2023-11-21T02:19:28;31.97;;;22.40;;
2039;SDS011;1025;42.686;23.350;2023-11-21T02:21:56;35.80;;;24.30;;
2039;SDS011;1025;42.686;23.350;2023-11-21T02:24:26;30.97;;;22.70;;
2039;SDS011;1025;42.686;23.350;2023-11-21T02:26:52;32.60;;;23.97;;
2039;SDS011;1025;42.686;23.350;2023-11-21T02:29:19;32.50;;;23.50;;
2039;SDS011;1025;42.686;23.350;2023-11-21T02:31:47;30.10;;;24.00;;
2039;SDS011;1025;42.686;23.350;2023-11-21T02:34:14;30.97;;;21.90;;
2039;SDS011;1025;42.686;23.350;2023-11-21T02:36:40;31.00;;;24.33;;
2039;SDS011;1025;42.686;23.350;2023-11-21T02:39:07;28.33;;;23.70;;
2039;SDS011;1025;42.686;23.350;2023-11-21T02:41:35;32.90;;;25.23;;
2039;SDS011;1025;42.686;23.350;2023-11-21T02:44:02;29.47;;;23.40;;
2039;SDS011;1025;42.686;23.350;2023-11-21T02:46:29;32.00;;;23.70;;
2039;SDS011;1025;42.686;23.350;2023-11-21T02:48:57;27.10;;;22.10;;
2039;SDS011;1025;42.686;23.350;2023-11-21T02:51:23;30.87;;;24.80;;
2039;SDS011;1025;42.686;23.350;2023-11-21T02:53:50;30.10;;;24.83;;
2039;SDS011;1025;42.686;23.350;2023-11-21T02:56:17;34.40;;;23.13;;
2039;SDS011;1025;42.686;23.350;2023-11-21T02:58:45;28.40;;;22.03;;
2039;SDS011;1025;42.686;23.350;2023-11-21T03:01:11;31.83;;;24.90;;
2039;SDS011;1025;42.686;23.350;2023-11-21T03:03:38;34.53;;;23.10;;
2039;SDS011;1025;42.686;23.350;2023-11-21T03:06:05;35.43;;;22.53;;
2039;SDS011;1025;42.686;23.350;2023-11-21T03:08:31;32.00;;;22.67;;
2039;SDS011;1025;42.686;23.350;2023-11-21T03:10:58;28.80;;;21.93;;
2039;SDS011;1025;42.686;23.350;2023-11-21T03:13:25;34.53;;;23.47;;
2039;SDS011;1025;42.686;23.350;2023-11-21T03:15:52;29.70;;;21.53;;
2039;SDS011;1025;42.686;23.350;2023-11-21T03:18:19;31.63;;;22.60;;
2039;SDS011;1025;42.686;23.350;2023-11-21T03:20:47;33.80;;;24.77;;
2039;SDS011;1025;42.686;23.350;2023-11-21T03:23:13;28.53;;;23.30;;
2039;SDS011;1025;42.686;23.350;2023-11-21T03:25:40;33.63;;;21.47;;
2039;SDS011;1025;42.686;23.350;2023-11-21T03:28:07;29.10;;;21.47;;
2039;SDS011;1025;42.686;23.350;2023-11-21T03:30:34;33.23;;;23.53;;
2039;SDS011;1025;42.686;23.350;2023-11-21T03:33:02;24.37;;;19.60;;
2039;SDS011;1025;42.686;23.350;2023-11-21T03:35:28;27.43;;;21.47;;
2039;SDS011;1025;42.686;23.350;2023-11-21T03:37:55;39.37;;;22.63;;
2039;SDS011;1025;42.686;23.350;2023-11-21T03:40:22;33.50;;;24.13;;
2039;SDS011;1025;42.686;23.350;2023-11-21T03:42:48;30.77;;;23.17;;
2039;SDS011;1025;42.686;23.350;2023-11-21T03:45:15;29.33;;;22.47;;
2039;SDS011;1025;42.686;23.350;2023-11-21T03:47:42;26.33;;;22.07;;
2039;SDS011;1025;42.686;23.350;2023-11-21T03:50:10;26.83;;;22.50;;
2039;SDS011;1025;42.686;23.350;2023-11-21T03:52:37;30.73;;;22.43;;
2039;SDS011;1025;42.686;23.350;2023-11-21T03:55:03;26.70;;;21.93;;
2039;SDS011;1025;42.686;23.350;2023-11-21T03:57:30;26.93;;;22.40;;
2039;SDS011;1025;42.686;23.350;2023-11-21T03:59:56;27.80;;;20.40;;
2039;SDS011;1025;42.686;23.350;2023-11-21T04:02:23;25.43;;;21.67;;
2039;SDS011;1025;42.686;23.350;2023-11-21T04:04:51;34.00;;;22.47;;
2039;SDS011;1025;42.686;23.350;2023-11-21T04:07:19;32.70;;;21.60;;
2039;SDS011;1025;42.686;23.350;2023-11-21T04:09:47;23.07;;;19.80;;
2039;SDS011;1025;42.686;23.350;2023-11-21T04:12:13;27.17;;;21.30;;
2039;SDS011;1025;42.686;23.350;2023-11-21T04:14:40;27.10;;;21.47;;
2039;SDS011;1025;42.686;23.350;2023-11-21T04:17:06;26.00;;;20.00;;
2039;SDS011;1025;42.686;23.350;2023-11-21T04:19:33;37.30;;;22.77;;
2039;SDS011;1025;42.686;23.350;2023-11-21T04:22:00;29.63;;;23.23;;
2039;SDS011;1025;42.686;23.350;2023-11-21T04:24:27;27.00;;;22.00;;
2039;SDS011;1025;42.686;23.350;2023-11-21T04:26:54;26.93;;;20.63;;
2039;SDS011;1025;42.686;23.350;2023-11-21T04:29:21;25.37;;;18.20;;
2039;SDS011;1025;42.686;23.350;2023-11-21T04:31:47;24.57;;;20.63;;
2039;SDS011;1025;42.686;23.350;2023-11-21T04:34:14;20.47;;;17.63;;
2039;SDS011;1025;42.686;23.350;2023-11-21T04:36:41;26.13;;;19.77;;
2039;SDS011;1025;42.686;23.350;2023-11-21T04:39:07;27.70;;;20.67;;
2039;SDS011;1025;42.686;23.350;2023-11-21T04:41:35;33.20;;;24.67;;
2039;SDS011;1025;42.686;23.350;2023-11-21T04:44:04;36.53;;;24.47;;
2039;SDS011;1025;42.686;23.350;2023-11-21T04:46:31;32.60;;;21.20;;
2039;SDS011;1025;42.686;23.350;2023-11-21T04:49:00;36.63;;;25.43;;
2039;SDS011;1025;42.686;23.350;2023-11-21T04:51:28;31.10;;;23.10;;
2039;SDS011;1025;42.686;23.350;2023-11-21T04:53:54;30.53;;;23.67;;
2039;SDS011;1025;42.686;23.350;2023-11-21T04:56:21;31.10;;;23.63;;
2039;SDS011;1025;42.686;23.350;2023-11-21T04:58:49;30.30;;;22.40;;
2039;SDS011;1025;42.686;23.350;2023-11-21T05:01:16;32.53;;;22.90;;
2039;SDS011;1025;42.686;23.350;2023-11-21T05:03:42;40.50;;;22.40;;
2039;SDS011;1025;42.686;23.350;2023-11-21T05:06:09;29.70;;;22.50;;
2039;SDS011;1025;42.686;23.350;2023-11-21T05:08:36;36.20;;;25.70;;
2039;SDS011;1025;42.686;23.350;2023-11-21T05:11:03;33.97;;;23.50;;
2039;SDS011;1025;42.686;23.350;2023-11-21T05:13:29;30.87;;;24.40;;
2039;SDS011;1025;42.686;23.350;2023-11-21T05:15:57;37.63;;;24.47;;
2039;SDS011;1025;42.686;23.350;2023-11-21T05:18:24;31.63;;;23.60;;
2039;SDS011;1025;42.686;23.350;2023-11-21T05:20:52;37.90;;;26.00;;
2039;SDS011;1025;42.686;23.350;2023-11-21T05:23:18;33.70;;;22.93;;
2039;SDS011;1025;42.686;23.350;2023-11-21T05:25:45;32.87;;;24.90;;
2039;SDS011;1025;42.686;23.350;2023-11-21T05:28:12;38.97;;;26.13;;
2039;SDS011;1025;42.686;23.350;2023-11-21T05:30:39;34.80;;;24.87;;
2039;SDS011;1025;42.686;23.350;2023-11-21T05:33:07;34.50;;;23.37;;
2039;SDS011;1025;42.686;23.350;2023-11-21T05:35:33;31.27;;;24.10;;
2039;SDS011;1025;42.686;23.350;2023-11-21T05:38:00;36.50;;;24.30;;
2039;SDS011;1025;42.686;23.350;2023-11-21T05:40:26;29.70;;;23.17;;
2039;SDS011;1025;42.686;23.350;2023-11-21T05:42:55;29.57;;;23.27;;
2039;SDS011;1025;42.686;23.350;2023-11-21T05:45:21;31.67;;;23.10;;
2039;SDS011;1025;42.686;23.350;2023-11-21T05:47:48;28.10;;;22.40;;
2039;SDS011;1025;42.686;23.350;2023-11-21T05:50:17;37.30;;;24.60;;
2039;SDS011;1025;42.686;23.350;2023-11-21T05:52:44;34.40;;;23.77;;
2039;SDS011;1025;42.686;23.350;2023-11-21T05:55:11;35.77;;;25.40;;
2039;SDS011;1025;42.686;23.350;2023-11-21T05:57:38;48.57;;;27.17;;
2039;SDS011;1025;42.686;23.350;2023-11-21T06:00:05;37.97;;;27.10;;
2039;SDS011;1025;42.686;23.350;2023-11-21T06:02:36;33.57;;;26.10;;
2039;SDS011;1025;42.686;23.350;2023-11-21T06:05:03;34.10;;;25.60;;
2039;SDS011;1025;42.686;23.350;2023-11-21T06:07:31;32.60;;;25.17;;
2039;SDS011;1025;42.686;23.350;2023-11-21T06:09:58;34.20;;;27.10;;
2039;SDS011;1025;42.686;23.350;2023-11-21T06:12:24;29.70;;;23.70;;
2039;SDS011;1025;42.686;23.350;2023-11-21T06:14:51;28.87;;;22.30;;
2039;SDS011;1025;42.686;23.350;2023-11-21T06:17:18;22.57;;;19.47;;
2039;SDS011;1025;42.686;23.350;2023-11-21T06:19:55;25.15;;;20.35;;
2039;SDS011;1025;42.686;23.350;2023-11-21T06:22:22;20.13;;;17.93;;
2039;SDS011;1025;42.686;23.350;2023-11-21T06:24:50;21.37;;;18.50;;
2039;SDS011;1025;42.686;23.350;2023-11-21T06:27:17;23.80;;;18.00;;
2039;SDS011;1025;42.686;23.350;2023-11-21T06:29:43;34.80;;;20.27;;
2039;SDS011;1025;42.686;23.350;2023-11-21T06:32:10;23.23;;;18.37;;
2039;SDS011;1025;42.686;23.350;2023-11-21T06:34:36;26.63;;;19.50;;
2039;SDS011;1025;42.686;23.350;2023-11-21T06:37:03;21.63;;;18.63;;
2039;SDS011;1025;42.686;23.350;2023-11-21T06:39:30;22.07;;;19.73;;
2039;SDS011;1025;42.686;23.350;2023-11-21T06:41:58;28.80;;;20.80;;
2039;SDS011;1025;42.686;23.350;2023-11-21T06:44:25;20.70;;;16.30;;
2039;SDS011;1025;42.686;23.350;2023-11-21T06:46:52;17.60;;;15.70;;
2039;SDS011;1025;42.686;23.350;2023-11-21T06:49:19;22.00;;;17.67;;
2039;SDS011;1025;42.686;23.350;2023-11-21T06:51:45;20.33;;;17.30;;
2039;SDS011;1025;42.686;23.350;2023-11-21T06:54:12;19.63;;;16.17;;
2039;SDS011;1025;42.686;23.350;2023-11-21T06:56:39;17.80;;;14.37;;
2039;SDS011;1025;42.686;23.350;2023-11-21T06:59:07;19.07;;;16.27;;
2039;SDS011;1025;42.686;23.350;2023-11-21T07:01:34;20.07;;;17.93;;
2039;SDS011;1025;42.686;23.350;2023-11-21T07:04:04;19.87;;;16.00;;
2039;SDS011;1025;42.686;23.350;2023-11-21T07:06:31;18.43;;;15.90;;
2039;SDS011;1025;42.686;23.350;2023-11-21T07:08:57;29.63;;;18.97;;
2039;SDS011;1025;42.686;23.350;2023-11-21T07:11:24;25.40;;;18.77;;
2039;SDS011;1025;42.686;23.350;2023-11-21T07:13:51;22.87;;;17.63;;
2039;SDS011;1025;42.686;23.350;2023-11-21T07:16:19;25.93;;;18.13;;
2039;SDS011;1025;42.686;23.350;2023-11-21T07:18:46;18.80;;;16.80;;
2039;SDS011;1025;42.686;23.350;2023-11-21T07:21:14;23.10;;;20.17;;
2039;SDS011;1025;42.686;23.350;2023-11-21T07:23:41;22.67;;;18.40;;
2039;SDS011;1025;42.686;23.350;2023-11-21T07:26:08;33.57;;;18.63;;
2039;SDS011;1025;42.686;23.350;2023-11-21T07:28:36;24.53;;;18.40;;
2039;SDS011;1025;42.686;23.350;2023-11-21T07:31:02;22.13;;;16.73;;
2039;SDS011;1025;42.686;23.350;2023-11-21T07:33:31;27.40;;;17.63;;
2039;SDS011;1025;42.686;23.350;2023-11-21T07:35:57;22.07;;;19.67;;
2039;SDS011;1025;42.686;23.350;2023-11-21T07:38:24;22.07;;;18.00;;
2039;SDS011;1025;42.686;23.350;2023-11-21T07:40:50;21.40;;;18.97;;
2039;SDS011;1025;42.686;23.350;2023-11-21T07:43:17;21.33;;;15.90;;
2039;SDS011;1025;42.686;23.350;2023-11-21T07:45:44;21.00;;;18.90;;
2039;SDS011;1025;42.686;23.350;2023-11-21T07:48:11;18.97;;;16.97;;
2039;SDS011;1025;42.686;23.350;2023-11-21T07:50:39;28.07;;;18.60;;
2039;SDS011;1025;42.686;23.350;2023-11-21T07:53:05;20.00;;;16.50;;
2039;SDS011;1025;42.686;23.350;2023-11-21T07:55:32;24.13;;;17.93;;
2039;SDS011;1025;42.686;23.350;2023-11-21T07:57:59;37.47;;;18.17;;
2039;SDS011;1025;42.686;23.350;2023-11-21T08:00:26;24.93;;;18.30;;
2039;SDS011;1025;42.686;23.350;2023-11-21T08:02:55;24.77;;;16.40;;
2039;SDS011;1025;42.686;23.350;2023-11-21T08:05:21;21.60;;;17.57;;
2039;SDS011;1025;42.686;23.350;2023-11-21T08:07:49;21.60;;;17.37;;
2039;SDS011;1025;42.686;23.350;2023-11-21T08:10:16;30.13;;;19.60;;
2039;SDS011;1025;42.686;23.350;2023-11-21T08:12:43;25.50;;;20.83;;
2039;SDS011;1025;42.686;23.350;2023-11-21T08:15:09;33.50;;;21.80;;
2039;SDS011;1025;42.686;23.350;2023-11-21T08:17:36;27.40;;;21.20;;
2039;SDS011;1025;42.686;23.350;2023-11-21T08:20:03;27.45;;;21.05;;
2039;SDS011;1025;42.686;23.350;2023-11-21T08:22:29;28.23;;;22.43;;
2039;SDS011;1025;42.686;23.350;2023-11-21T08:24:58;27.83;;;20.70;;
2039;SDS011;1025;42.686;23.350;2023-11-21T08:27:24;27.97;;;22.20;;
2039;SDS011;1025;42.686;23.350;2023-11-21T08:29:51;23.77;;;17.30;;
2039;SDS011;1025;42.686;23.350;2023-11-21T08:32:18;22.30;;;17.50;;
2039;SDS011;1025;42.686;23.350;2023-11-21T08:34:44;19.80;;;17.67;;
2039;SDS011;1025;42.686;23.350;2023-11-21T08:37:11;21.17;;;17.50;;
2039;SDS011;1025;42.686;23.350;2023-11-21T08:39:40;25.03;;;18.60;;
2039;SDS011;1025;42.686;23.350;2023-11-21T08:42:09;30.40;;;19.57;;
2039;SDS011;1025;42.686;23.350;2023-11-21T08:44:35;22.93;;;18.80;;
2039;SDS011;1025;42.686;23.350;2023-11-21T08:47:03;27.10;;;18.47;;
2039;SDS011;1025;42.686;23.350;2023-11-21T08:49:30;28.20;;;19.53;;
2039;SDS011;1025;42.686;23.350;2023-11-21T08:51:57;25.67;;;20.70;;
2039;SDS011;1025;42.686;23.350;2023-11-21T08:54:24;22.20;;;19.50;;
2039;SDS011;1025;42.686;23.350;2023-11-21T08:56:51;26.87;;;21.90;;
2039;SDS011;1025;42.686;23.350;2023-11-21T08:59:19;30.40;;;23.90;;
2039;SDS011;1025;42.686;23.350;2023-11-21T09:01:46;31.70;;;26.53;;
2039;SDS011;1025;42.686;23.350;2023-11-21T09:04:13;35.17;;;28.93;;
2039;SDS011;1025;42.686;23.350;2023-11-21T09:06:39;45.80;;;27.90;;
2039;SDS011;1025;42.686;23.350;2023-11-21T09:09:06;40.73;;;29.00;;
2039;SDS011;1025;42.686;23.350;2023-11-21T09:11:33;41.03;;;31.33;;
2039;SDS011;1025;42.686;23.350;2023-11-21T09:14:01;38.37;;;28.10;;
2039;SDS011;1025;42.686;23.350;2023-11-21T09:16:30;39.40;;;31.80;;
2039;SDS011;1025;42.686;23.350;2023-11-21T09:18:56;38.03;;;31.37;;
2039;SDS011;1025;42.686;23.350;2023-11-21T09:21:23;40.10;;;30.30;;
2039;SDS011;1025;42.686;23.350;2023-11-21T09:23:50;30.03;;;26.77;;
2039;SDS011;1025;42.686;23.350;2023-11-21T09:26:19;32.37;;;27.60;;
2039;SDS011;1025;42.686;23.350;2023-11-21T09:28:45;32.27;;;27.13;;
2039;SDS011;1025;42.686;23.350;2023-11-21T09:31:13;37.03;;;29.37;;
2039;SDS011;1025;42.686;23.350;2023-11-21T09:33:43;38.67;;;29.33;;
2039;SDS011;1025;42.686;23.350;2023-11-21T09:36:13;39.67;;;30.57;;
2039;SDS011;1025;42.686;23.350;2023-11-21T09:38:40;31.70;;;28.10;;
2039;SDS011;1025;42.686;23.350;2023-11-21T09:41:09;34.87;;;29.53;;
2039;SDS011;1025;42.686;23.350;2023-11-21T09:43:42;37.13;;;27.13;;
2039;SDS011;1025;42.686;23.350;2023-11-21T09:46:10;37.60;;;29.40;;
2039;SDS011;1025;42.686;23.350;2023-11-21T09:48:38;138.83;;;38.43;;
2039;SDS011;1025;42.686;23.350;2023-11-21T09:51:07;85.00;;;33.57;;
2039;SDS011;1025;42.686;23.350;2023-11-21T09:53:34;44.70;;;27.07;;
2039;SDS011;1025;42.686;23.350;2023-11-21T09:56:01;31.63;;;26.23;;
2039;SDS011;1025;42.686;23.350;2023-11-21T09:58:28;26.23;;;21.07;;
2039;SDS011;1025;42.686;23.350;2023-11-21T10:00:55;25.03;;;21.70;;
2039;SDS011;1025;42.686;23.350;2023-11-21T10:03:23;19.77;;;16.83;;
2039;SDS011;1025;42.686;23.350;2023-11-21T10:05:50;19.63;;;15.97;;
2039;SDS011;1025;42.686;23.350;2023-11-21T10:08:19;20.63;;;15.83;;
2039;SDS011;1025;42.686;23.350;2023-11-21T10:10:46;17.03;;;14.77;;
2039;SDS011;1025;42.686;23.350;2023-11-21T10:13:15;24.20;;;14.90;;
2039;SDS011;1025;42.686;23.350;2023-11-21T10:15:44;17.27;;;15.40;;
2039;SDS011;1025;42.686;23.350;2023-11-21T10:18:15;17.70;;;15.10;;
2039;SDS011;1025;42.686;23.350;2023-11-21T10:20:42;19.43;;;16.07;;
2039;SDS011;1025;42.686;23.350;2023-11-21T10:23:11;20.33;;;14.83;;
2039;SDS011;1025;42.686;23.350;2023-11-21T10:25:41;21.37;;;15.03;;
2039;SDS011;1025;42.686;23.350;2023-11-21T10:28:07;25.53;;;16.50;;
2039;SDS011;1025;42.686;23.350;2023-11-21T10:30:36;16.20;;;14.50;;
2039;SDS011;1025;42.686;23.350;2023-11-21T10:33:03;14.87;;;13.50;;
2039;SDS011;1025;42.686;23.350;2023-11-21T10:35:42;19.33;;;13.27;;
2039;SDS011;1025;42.686;23.350;2023-11-21T10:38:12;19.63;;;12.83;;
2039;SDS011;1025;42.686;23.350;2023-11-21T10:40:40;24.27;;;13.10;;
2039;SDS011;1025;42.686;23.350;2023-11-21T10:43:07;17.30;;;14.43;;
2039;SDS011;1025;42.686;23.350;2023-11-21T10:45:35;19.37;;;14.50;;
2039;SDS011;1025;42.686;23.350;2023-11-21T10:48:04;20.13;;;15.50;;
2039;SDS011;1025;42.686;23.350;2023-11-21T10:50:32;15.97;;;13.40;;
2039;SDS011;1025;42.686;23.350;2023-11-21T10:53:00;27.43;;;17.40;;
2039;SDS011;1025;42.686;23.350;2023-11-21T10:55:27;18.07;;;14.17;;
2039;SDS011;1025;42.686;23.350;2023-11-21T10:57:55;19.80;;;15.40;;
2039;SDS011;1025;42.686;23.350;2023-11-21T11:00:24;18.50;;;14.80;;
2039;SDS011;1025;42.686;23.350;2023-11-21T11:02:51;19.97;;;14.83;;
2039;SDS011;1025;42.686;23.350;2023-11-21T11:05:19;14.07;;;12.60;;
2039;SDS011;1025;42.686;23.350;2023-11-21T11:07:47;17.43;;;13.90;;
2039;SDS011;1025;42.686;23.350;2023-11-21T11:10:17;16.33;;;14.30;;
2039;SDS011;1025;42.686;23.350;2023-11-21T11:12:46;21.13;;;13.80;;
2039;SDS011;1025;42.686;23.350;2023-11-21T11:15:15;16.10;;;14.00;;
2039;SDS011;1025;42.686;23.350;2023-11-21T11:17:42;26.80;;;14.90;;
2039;SDS011;1025;42.686;23.350;2023-11-21T11:20:10;24.00;;;14.77;;
2039;SDS011;1025;42.686;23.350;2023-11-21T11:22:41;17.03;;;15.23;;
2039;SDS011;1025;42.686;23.350;2023-11-21T11:27:54;18.53;;;15.13;;
2039;SDS011;1025;42.686;23.350;2023-11-21T11:30:26;16.73;;;13.60;;
2039;SDS011;1025;42.686;23.350;2023-11-21T11:32:58;66.93;;;19.93;;
2039;SDS011;1025;42.686;23.350;2023-11-21T11:35:30;38.43;;;16.60;;
2039;SDS011;1025;42.686;23.350;2023-11-21T11:38:00;25.43;;;15.10;;
2039;SDS011;1025;42.686;23.350;2023-11-21T11:40:38;19.33;;;14.23;;
2039;SDS011;1025;42.686;23.350;2023-11-21T11:43:05;22.93;;;16.37;;
2039;SDS011;1025;42.686;23.350;2023-11-21T11:45:34;20.00;;;14.40;;
2039;SDS011;1025;42.686;23.350;2023-11-21T11:48:06;34.70;;;15.30;;
2039;SDS011;1025;42.686;23.350;2023-11-21T11:50:33;36.07;;;15.73;;
2039;SDS011;1025;42.686;23.350;2023-11-21T11:53:11;16.83;;;14.33;;
2039;SDS011;1025;42.686;23.350;2023-11-21T11:55:38;17.70;;;15.90;;
2039;SDS011;1025;42.686;23.350;2023-11-21T11:58:05;22.43;;;17.50;;
2039;SDS011;1025;42.686;23.350;2023-11-21T12:00:34;18.30;;;16.50;;
2039;SDS011;1025;42.686;23.350;2023-11-21T12:03:03;17.13;;;15.30;;
2039;SDS011;1025;42.686;23.350;2023-11-21T12:05:31;21.73;;;17.30;;
2039;SDS011;1025;42.686;23.350;2023-11-21T12:08:01;22.17;;;17.70;;
2039;SDS011;1025;42.686;23.350;2023-11-21T12:10:29;22.83;;;20.43;;
2039;SDS011;1025;42.686;23.350;2023-11-21T12:12:56;28.43;;;21.50;;
2039;SDS011;1025;42.686;23.350;2023-11-21T12:15:23;27.10;;;21.90;;
2039;SDS011;1025;42.686;23.350;2023-11-21T12:17:51;28.80;;;21.40;;
2039;SDS011;1025;42.686;23.350;2023-11-21T12:20:19;27.10;;;22.07;;
2039;SDS011;1025;42.686;23.350;2023-11-21T12:22:46;28.43;;;22.87;;
2039;SDS011;1025;42.686;23.350;2023-11-21T12:25:16;23.40;;;20.80;;
2039;SDS011;1025;42.686;23.350;2023-11-21T12:27:44;26.67;;;21.57;;
2039;SDS011;1025;42.686;23.350;2023-11-21T12:30:12;26.73;;;22.10;;
2039;SDS011;1025;42.686;23.350;2023-11-21T12:32:40;27.77;;;20.63;;
2039;SDS011;1025;42.686;23.350;2023-11-21T12:35:09;26.43;;;21.87;;
2039;SDS011;1025;42.686;23.350;2023-11-21T12:37:36;26.40;;;20.40;;
2039;SDS011;1025;42.686;23.350;2023-11-21T12:40:03;26.90;;;21.90;;
2039;SDS011;1025;42.686;23.350;2023-11-21T12:42:31;30.40;;;22.00;;
2039;SDS011;1025;42.686;23.350;2023-11-21T12:45:08;31.77;;;20.30;;
2039;SDS011;1025;42.686;23.350;2023-11-21T12:47:39;33.30;;;21.73;;
2039;SDS011;1025;42.686;23.350;2023-11-21T12:50:06;28.30;;;22.07;;
2039;SDS011;1025;42.686;23.350;2023-11-21T12:52:40;30.67;;;21.43;;
2039;SDS011;1025;42.686;23.350;2023-11-21T12:55:08;26.40;;;21.20;;
2039;SDS011;1025;42.686;23.350;2023-11-21T12:57:35;28.00;;;20.53;;
2039;SDS011;1025;42.686;23.350;2023-11-21T13:00:03;27.00;;;19.50;;
2039;SDS011;1025;42.686;23.350;2023-11-21T13:02:36;28.33;;;22.17;;
2039;SDS011;1025;42.686;23.350;2023-11-21T13:05:03;36.23;;;20.10;;
2039;SDS011;1025;42.686;23.350;2023-11-21T13:07:42;31.70;;;20.70;;
2039;SDS011;1025;42.686;23.350;2023-11-21T13:10:11;29.47;;;21.80;;
2039;SDS011;1025;42.686;23.350;2023-11-21T13:12:42;150.97;;;34.50;;
2039;SDS011;1025;42.686;23.350;2023-11-21T13:15:09;49.97;;;23.20;;
2039;SDS011;1025;42.686;23.350;2023-11-21T13:17:36;27.10;;;21.20;;
2039;SDS011;1025;42.686;23.350;2023-11-21T13:20:03;29.53;;;21.93;;
2039;SDS011;1025;42.686;23.350;2023-11-21T13:22:33;30.77;;;22.77;;
2039;SDS011;1025;42.686;23.350;2023-11-21T13:25:02;31.37;;;21.97;;
2039;SDS011;1025;42.686;23.350;2023-11-21T13:27:32;34.47;;;24.23;;
2039;SDS011;1025;42.686;23.350;2023-11-21T13:29:59;27.93;;;20.77;;
2039;SDS011;1025;42.686;23.350;2023-11-21T13:32:26;26.10;;;23.30;;
2039;SDS011;1025;42.686;23.350;2023-11-21T13:34:52;30.20;;;24.20;;
2039;SDS011;1025;42.686;23.350;2023-11-21T13:37:19;27.47;;;23.77;;
2039;SDS011;1025;42.686;23.350;2023-11-21T13:39:47;28.80;;;24.43;;
2039;SDS011;1025;42.686;23.350;2023-11-21T13:42:16;30.47;;;25.00;;
2039;SDS011;1025;42.686;23.350;2023-11-21T13:44:43;24.73;;;22.17;;
2039;SDS011;1025;42.686;23.350;2023-11-21T13:47:13;29.70;;;24.60;;
2039;SDS011;1025;42.686;23.350;2023-11-21T13:49:39;25.47;;;22.77;;
2039;SDS011;1025;42.686;23.350;2023-11-21T13:52:07;28.10;;;22.60;;
2039;SDS011;1025;42.686;23.350;2023-11-21T13:54:33;31.70;;;25.03;;
2039;SDS011;1025;42.686;23.350;2023-11-21T13:57:00;25.10;;;21.60;;
2039;SDS011;1025;42.686;23.350;2023-11-21T13:59:29;28.80;;;25.67;;
2039;SDS011;1025;42.686;23.350;2023-11-21T14:01:57;25.13;;;22.43;;
2039;SDS011;1025;42.686;23.350;2023-11-21T14:04:25;79.60;;;31.00;;
2039;SDS011;1025;42.686;23.350;2023-11-21T14:07:11;91.90;;;33.70;;
2039;SDS011;1025;42.686;23.350;2023-11-21T14:09:47;106.07;;;35.10;;
2039;SDS011;1025;42.686;23.350;2023-11-21T14:12:15;26.83;;;23.07;;
2039;SDS011;1025;42.686;23.350;2023-11-21T14:14:43;35.47;;;25.10;;
2039;SDS011;1025;42.686;23.350;2023-11-21T14:17:10;29.77;;;21.90;;
2039;SDS011;1025;42.686;23.350;2023-11-21T14:19:37;31.70;;;25.27;;
2039;SDS011;1025;42.686;23.350;2023-11-21T14:22:08;35.23;;;24.57;;
2039;SDS011;1025;42.686;23.350;2023-11-21T14:24:35;34.93;;;24.83;;
2039;SDS011;1025;42.686;23.350;2023-11-21T14:27:02;40.27;;;25.27;;
2039;SDS011;1025;42.686;23.350;2023-11-21T14:29:29;37.00;;;24.47;;
2039;SDS011;1025;42.686;23.350;2023-11-21T14:31:57;36.30;;;25.63;;
2039;SDS011;1025;42.686;23.350;2023-11-21T14:34:24;30.73;;;24.67;;
2039;SDS011;1025;42.686;23.350;2023-11-21T14:36:51;42.53;;;25.10;;
2039;SDS011;1025;42.686;23.350;2023-11-21T14:39:18;42.87;;;25.47;;